TimeCDT,TemperatureF,Dew PointF,Humidity,Sea Level PressureIn,VisibilityMPH,Wind Direction,Wind SpeedMPH,Gust SpeedMPH,PrecipitationIn,Events,Conditions,WindDirDegrees,DateUTC
12:15 AM,50.2,47.8,92,30.07,10.0,NNW,8.1,16.1,N/A,,Overcast,340,2012-10-06 05:15:00
12:35 AM,49.3,45.0,85,30.07,10.0,North,13.8,19.6,N/A,,Overcast,350,2012-10-06 05:35:00
12:55 AM,48.4,44.8,87,30.08,10.0,NNW,8.1,-,N/A,,Overcast,340,2012-10-06 05:55:00
1:15 AM,47.8,44.2,87,30.08,10.0,North,12.7,23.0,N/A,,Overcast,360,2012-10-06 06:15:00
1:35 AM,47.1,42.8,85,30.09,10.0,North,8.1,-,N/A,,Overcast,10,2012-10-06 06:35:00
1:55 AM,46.4,43.7,90,30.08,7.0,North,5.8,-,N/A,Rain,Rain,360,2012-10-06 06:55:00
2:15 AM,45.9,45.9,100,30.09,10.0,North,6.9,-,N/A,Rain,Rain,350,2012-10-06 07:15:00
2:35 AM,45.7,45.7,100,30.11,2.0,North,3.5,-,0.07,,Overcast,350,2012-10-06 07:35:00
2:55 AM,45.1,45.1,100,30.10,2.5,North,4.6,-,0.14,,Overcast,350,2012-10-06 07:55:00
3:15 AM,44.8,44.8,100,30.11,2.5,NNW,3.5,-,0.06,,Unknown,340,2012-10-06 08:15:00
3:35 AM,44.6,44.6,100,30.11,10.0,NNW,4.6,-,0.07,Rain,Rain,340,2012-10-06 08:35:00
3:55 AM,44.6,44.6,100,30.11,10.0,North,6.9,-,0.07,Rain,Light Rain,360,2012-10-06 08:55:00
4:15 AM,44.6,44.6,100,30.12,10.0,NNW,8.1,-,N/A,,Overcast,340,2012-10-06 09:15:00
4:35 AM,44.6,44.6,100,30.12,10.0,North,8.1,-,N/A,,Overcast,360,2012-10-06 09:35:00
4:55 AM,44.6,44.6,100,30.12,10.0,North,8.1,-,N/A,,Overcast,360,2012-10-06 09:55:00
5:35 AM,44.6,44.6,100,30.14,10.0,North,6.9,-,N/A,,Overcast,10,2012-10-06 10:35:00
5:55 AM,44.2,44.2,100,30.15,10.0,NNW,8.1,-,N/A,,Overcast,340,2012-10-06 10:55:00
6:15 AM,43.7,43.0,97,30.15,10.0,North,10.4,-,N/A,,Overcast,10,2012-10-06 11:15:00
6:35 AM,43.5,42.3,95,30.16,10.0,North,8.1,-,N/A,,Overcast,360,2012-10-06 11:35:00
7:15 AM,43.0,41.9,96,30.16,10.0,North,5.8,-,N/A,,Scattered Clouds,10,2012-10-06 12:15:00
7:35 AM,42.3,42.3,100,30.17,10.0,North,5.8,-,N/A,,Clear,360,2012-10-06 12:35:00
7:55 AM,43.2,41.7,95,30.18,10.0,North,9.2,-,N/A,,Scattered Clouds,360,2012-10-06 12:55:00
8:15 AM,43.7,38.8,83,30.20,10.0,North,8.1,-,N/A,,Scattered Clouds,360,2012-10-06 13:15:00
8:35 AM,45.0,38.8,79,30.20,10.0,North,6.9,-,N/A,,Mostly Cloudy,10,2012-10-06 13:35:00
8:55 AM,45.9,38.5,75,30.20,10.0,North,6.9,-,N/A,,Mostly Cloudy,360,2012-10-06 13:55:00
9:15 AM,46.8,38.1,72,30.20,10.0,NNE,5.8,-,N/A,,Mostly Cloudy,30,2012-10-06 14:15:00
9:35 AM,47.5,36.3,65,30.20,10.0,NNE,6.9,-,N/A,,Scattered Clouds,20,2012-10-06 14:35:00
9:55 AM,48.0,35.8,63,30.19,10.0,NNE,5.8,-,N/A,,Clear,20,2012-10-06 14:55:00
10:15 AM,49.3,35.6,59,30.19,10.0,North,5.8,-,N/A,,Clear,350,2012-10-06 15:15:00
10:35 AM,50.5,35.8,57,30.19,10.0,NNE,5.8,-,N/A,,Clear,20,2012-10-06 15:35:00
10:55 AM,51.4,35.8,55,30.18,10.0,NNE,5.8,-,N/A,,Clear,20,2012-10-06 15:55:00
11:15 AM,52.5,35.6,53,30.17,10.0,North,5.8,-,N/A,,Clear,360,2012-10-06 16:15:00
11:35 AM,53.8,35.1,49,30.17,10.0,North,5.8,-,N/A,,Clear,360,2012-10-06 16:35:00
11:55 AM,54.7,34.5,47,30.16,10.0,NNE,6.9,-,N/A,,Clear,20,2012-10-06 16:55:00
12:15 PM,55.6,33.1,43,30.16,10.0,North,5.8,-,N/A,,Clear,360,2012-10-06 17:15:00
12:35 PM,56.3,32.5,41,30.15,10.0,NNW,3.5,-,N/A,,Clear,340,2012-10-06 17:35:00
12:55 PM,57.2,32.4,39,30.14,10.0,North,5.8,-,N/A,,Clear,350,2012-10-06 17:55:00
1:15 PM,57.7,32.2,38,30.13,10.0,NNW,5.8,-,N/A,,Clear,340,2012-10-06 18:15:00
1:35 PM,58.8,31.3,35,30.12,10.0,North,10.4,-,N/A,,Clear,360,2012-10-06 18:35:00
1:55 PM,59.2,30.7,34,30.11,10.0,NNE,5.8,-,N/A,,Clear,20,2012-10-06 18:55:00
2:15 PM,59.7,30.4,33,30.11,10.0,NNW,6.9,-,N/A,,Clear,330,2012-10-06 19:15:00
2:35 PM,60.3,30.4,32,30.12,10.0,North,9.2,-,N/A,,Clear,360,2012-10-06 19:35:00
3:15 PM,60.8,29.5,31,30.11,10.0,NNW,3.5,-,N/A,,Clear,330,2012-10-06 20:15:00
3:35 PM,60.8,29.7,31,30.11,10.0,NE,3.5,-,N/A,,Clear,50,2012-10-06 20:35:00
3:55 PM,60.3,28.9,31,30.11,10.0,North,10.4,-,N/A,,Clear,10,2012-10-06 20:55:00
4:15 PM,60.4,30.7,33,30.11,10.0,North,5.8,-,N/A,,Clear,360,2012-10-06 21:15:00
4:35 PM,59.7,30.7,33,30.11,10.0,NNW,9.2,-,N/A,,Clear,330,2012-10-06 21:35:00
5:15 PM,57.9,29.5,34,30.12,10.0,NNW,5.8,-,N/A,,Clear,330,2012-10-06 22:15:00
5:35 PM,56.1,29.8,37,30.12,10.0,NNW,4.6,-,N/A,,Clear,330,2012-10-06 22:35:00
6:15 PM,54.3,32.7,44,30.12,10.0,NW,3.5,-,N/A,,Clear,310,2012-10-06 23:15:00
6:35 PM,53.4,34.2,48,30.12,10.0,NNW,3.5,-,N/A,,Scattered Clouds,340,2012-10-06 23:35:00
6:55 PM,52.5,36.9,55,30.11,10.0,Calm,Calm,-,N/A,,Mostly Cloudy,0,2012-10-06 23:55:00
7:15 PM,52.5,35.6,53,30.09,7.0,North,4.6,-,N/A,,Overcast,10,2012-10-07 00:15:00
7:35 PM,52.7,33.8,49,30.12,10.0,North,9.2,-,N/A,,Overcast,350,2012-10-07 00:35:00
7:55 PM,52.5,33.3,48,30.13,10.0,NNW,5.8,-,N/A,,Overcast,340,2012-10-07 00:55:00
8:15 PM,52.0,34.2,51,30.14,10.0,North,5.8,-,N/A,,Overcast,350,2012-10-07 01:15:00
8:35 PM,51.4,34.2,52,30.14,10.0,North,6.9,-,N/A,,Overcast,350,2012-10-07 01:35:00
8:55 PM,51.1,34.3,53,30.14,10.0,North,6.9,-,N/A,,Overcast,360,2012-10-07 01:55:00
9:15 PM,50.9,33.8,52,30.16,10.0,NNW,8.1,-,N/A,,Overcast,340,2012-10-07 02:15:00
9:35 PM,50.7,33.4,52,30.15,10.0,North,6.9,-,N/A,,Overcast,350,2012-10-07 02:35:00
9:55 PM,50.2,33.8,53,30.15,10.0,North,8.1,-,N/A,,Overcast,360,2012-10-07 02:55:00
10:15 PM,50.0,34.2,55,30.15,10.0,North,6.9,-,N/A,,Overcast,350,2012-10-07 03:15:00
10:35 PM,50.0,34.3,55,30.14,10.0,North,5.8,-,N/A,,Overcast,360,2012-10-07 03:35:00
10:55 PM,49.8,34.5,56,30.14,10.0,North,6.9,-,N/A,,Overcast,360,2012-10-07 03:55:00
11:15 PM,49.5,34.9,57,30.14,10.0,North,5.8,-,N/A,,Overcast,360,2012-10-07 04:15:00
11:35 PM,49.3,34.9,58,30.14,10.0,North,5.8,-,N/A,,Overcast,360,2012-10-07 04:35:00